Nearby METAR Reports

 

KGRB - Ashwaubenon, Wisconsin, USA
Distance from station: NW 5mi, 8km
Updated: Sun, 24-Jun-2018 8:53am CDT
Clear
Clear
 Wind from ENE
Wind: ENE 9 mph , 15 km/h
Temperature: 72°F , 22°C
Dew Point: 61°F , 16°C
Humidity: 69%
Barometer: 29.93 inHg , 1013.5 hPa
Clouds: Clear
Visibility: 10 miles , 16 km
2018/06/24 13:53 KGRB 241353Z 07008KT 10SM CLR 22/16 A2993 RMK AO2 SLP133 T02170156
KATW - Appleton/Outagam, Wisconsin, USA
Distance from station: WSW 26mi, 42km
Updated: Sun, 24-Jun-2018 8:45am CDT
Partly cloudy
Partly cloudy
 Wind from ENE
Wind: ENE 10 mph , 17 km/h
Temperature: 70°F , 21°C
Dew Point: 54°F , 12°C
Humidity: 57%
Barometer: 29.93 inHg , 1013.5 hPa
Clouds: Partly cloudy
Visibility: 10 miles , 16 km
Cloud details: Partly cloudy 12000 ft
2018/06/24 13:45 KATW 241345Z 07009KT 10SM SCT120 21/12 A2993
 
KMTW - Manitowac Muni, Wisconsin, USA
Distance from station: SE 29mi, 47km
Updated: Sun, 24-Jun-2018 8:56am CDT
Clear
Clear
 Wind from NNE
Wind: NNE 8 mph , 13 km/h
Temperature: 66°F , 19°C
Dew Point: 61°F , 16°C
Humidity: 83%
Barometer: 29.94 inHg , 1013.9 hPa
Clouds: Clear
Visibility: 10 miles , 16 km
2018/06/24 13:56 KMTW 241356Z AUTO 03007KT 10SM CLR 19/16 A2994 RMK AO2 PRESRR SLP153 T01940156
KOCQ - Oconto, Wisconsin, USA
Distance from station: NNE 30mi, 49km
Updated: Sun, 24-Jun-2018 9:15am CDT
Clear
Clear
 Wind from N
Wind: N 5 mph , 7 km/h
Temperature: 66°F , 19°C
Dew Point: 57°F , 14°C
Humidity: 73%
Barometer: 29.95 inHg , 1014.2 hPa
Clouds: Clear
Visibility: 10 miles , 16 km
2018/06/24 14:15 KOCQ 241415Z AUTO 35004KT 10SM CLR 19/14 A2995 RMK AO1 T01930137
 
KEZS - Shawano Muni, Wisconsin, USA
Distance from station: NW 35mi, 56km
Updated: Sun, 24-Jun-2018 9:15am CDT
Clear
Clear
 Wind from NE
Wind: NE 3 mph , 6 km/h
Temperature: 70°F , 21°C
Dew Point: 59°F , 15°C
Humidity: 69%
Barometer: 29.96 inHg , 1014.6 hPa
Clouds: Clear
Visibility: 10 miles , 16 km
2018/06/24 14:15 KEZS 241415Z AUTO 04003KT 10SM CLR 21/15 A2996 RMK AO2 T02050153
KCLI - Clintonville, Wisconsin, USA
Distance from station: WNW 36mi, 58km
Updated: Wed, 20-Jun-2018 7:40am CDT
NOT Current
Overcast
Overcast
 Wind from NNE
Wind: NNE 5 mph , 7 km/h
Temperature: 64°F , 18°C
Dew Point: 59°F , 15°C
Humidity: 83%
Barometer: 29.94 inHg , 1013.9 hPa
Clouds: Overcast
Visibility: 10 miles , 16 km
Cloud details: Partly cloudy 5500 ft
Overcast 11000 ft
2018/06/20 12:40 KCLI 201240Z AUTO 02004KT 10SM SCT055 OVC110 18/15 A2994 RMK AO2 T01750148
 
KOSH - Oshkosh, Wisconsin, USA
Distance from station: SW 41mi, 66km
Updated: Sun, 24-Jun-2018 8:53am CDT
Clear
Clear
 Wind from ENE
Wind: ENE 8 mph , 13 km/h
Temperature: 70°F , 21°C
Dew Point: 59°F , 15°C
Humidity: 69%
Barometer: 29.95 inHg , 1014.2 hPa
Clouds: Clear
Visibility: 10 miles , 16 km
2018/06/24 13:53 KOSH 241353Z 07007KT 10SM CLR 21/15 A2995 RMK AO2 SLP132 T02060150
KSUE - Sturgeon Bay, Wisconsin, USA
Distance from station: NE 42mi, 68km
Updated: Sun, 24-Jun-2018 8:56am CDT
Clear
Clear
 Wind from NW
Wind: NW 9 mph , 15 km/h
Temperature: 64°F , 18°C
Dew Point: 59°F , 15°C
Humidity: 83%
Barometer: 29.94 inHg , 1013.9 hPa
Clouds: Clear
Visibility: 10 miles , 16 km
2018/06/24 13:56 KSUE 241356Z AUTO 32008KT 10SM CLR 18/15 A2994 RMK AO2 SLP156 T01780150
 
KSBM - Sheboygan, Wisconsin, USA
Distance from station: SSE 46mi, 75km
Updated: Sun, 24-Jun-2018 8:53am CDT
Few Clouds
Few Clouds
 Wind from NNE
Wind: NNE 7 mph , 11 km/h
Temperature: 68°F , 20°C
Dew Point: 61°F , 16°C
Humidity: 78%
Barometer: 29.95 inHg , 1014.2 hPa
Clouds: Few Clouds
Visibility: 10 miles , 16 km
Cloud details: Few Clouds 1400 ft
2018/06/24 13:53 KSBM 241353Z AUTO 02006KT 10SM FEW014 20/16 A2995 RMK AO2 PRESRR SLP140 T02000156 TSNO
KPCZ - Waupaca, Wisconsin, USA
Distance from station: W 48mi, 77km
Updated: Sun, 24-Jun-2018 9:15am CDT
Clear
Clear
 Wind from ESE
Wind: ESE 7 mph , 11 km/h
Temperature: 75°F , 24°C
Dew Point: 61°F , 16°C
Humidity: 61%
Barometer: 29.97 inHg , 1014.9 hPa
Clouds: Clear
Visibility: 10 miles , 16 km
2018/06/24 14:15 KPCZ 241415Z AUTO 12006KT 10SM CLR 24/16 A2997 RMK AO2 T02360163